Time;durP1;ratioP1;P1;durP2;ratioP2;P2;SDS_P1;SDS_P2;PMS_P1;PMS_P2;Temp;Humidity;BMP_temperature;BMP_pressure;BME280_temperature;BME280_humidity;BME280_pressure;Samples;Min_cycle;Max_cycle;Signal;HPM_P1;HPM_P2
2023/08/26 00:01:11;;;;;;;0.10;0.10;;;22.40;99.90;;;;;;5045256;28;20181;-82
2023/08/26 00:03:37;;;;;;;0.10;0.10;;;22.40;99.90;;;;;;5046134;28;20582;-82
2023/08/26 00:06:02;;;;;;;0.10;0.10;;;22.40;99.90;;;;;;5046686;28;20185;-82
2023/08/26 00:08:28;;;;;;;0.10;0.10;;;22.40;99.90;;;;;;5046680;28;20232;-82
2023/08/26 00:10:54;;;;;;;0.10;0.10;;;22.40;99.90;;;;;;5044701;28;20196;-82
2023/08/26 00:13:19;;;;;;;0.10;0.10;;;22.50;99.90;;;;;;5046592;28;20266;-82
2023/08/26 00:15:46;;;;;;;0.10;0.10;;;22.50;99.90;;;;;;5046913;28;20206;-81
2023/08/26 00:18:11;;;;;;;0.10;0.10;;;22.40;99.90;;;;;;5044537;28;20566;-82
2023/08/26 00:20:38;;;;;;;0.10;0.10;;;22.40;99.90;;;;;;5044794;28;20659;-82
2023/08/26 00:23:03;;;;;;;0.10;0.10;;;22.40;99.90;;;;;;5046535;28;20202;-82
2023/08/26 00:25:29;;;;;;;0.10;0.10;;;22.40;99.90;;;;;;5046376;28;20190;-82
2023/08/26 00:27:55;;;;;;;0.10;0.10;;;22.40;99.90;;;;;;5043711;28;20272;-82
2023/08/26 00:30:21;;;;;;;0.10;0.10;;;22.20;99.90;;;;;;5044721;28;20777;-82
2023/08/26 00:32:47;;;;;;;0.10;0.10;;;22.00;99.90;;;;;;5043905;28;20581;-82
2023/08/26 00:35:12;;;;;;;0.10;0.10;;;21.80;99.90;;;;;;5045529;28;20188;-82
2023/08/26 00:37:38;;;;;;;0.10;0.10;;;21.50;99.90;;;;;;5044727;28;20201;-82
2023/08/26 00:40:04;;;;;;;0.10;0.10;;;21.60;99.90;;;;;;5047091;28;20204;-82
2023/08/26 00:42:35;;;;;;;0.10;0.10;;;21.80;99.90;;;;;;5061285;28;20201;-82
2023/08/26 00:45:01;;;;;;;0.10;0.10;;;21.90;99.90;;;;;;5044131;28;20190;-82
2023/08/26 00:47:26;;;;;;;0.10;0.10;;;22.00;99.90;;;;;;5044340;28;20289;-82
2023/08/26 00:49:52;;;;;;;0.10;0.10;;;22.00;99.90;;;;;;5044886;28;20182;-82
2023/08/26 00:52:17;;;;;;;0.10;0.10;;;22.00;99.90;;;;;;5045058;28;20642;-82
2023/08/26 00:54:44;;;;;;;0.10;0.10;;;22.00;99.90;;;;;;5045019;28;21144;-82
2023/08/26 00:57:09;;;;;;;0.10;0.10;;;22.10;99.90;;;;;;5045440;28;20186;-82
2023/08/26 00:59:35;;;;;;;0.10;0.10;;;22.10;99.90;;;;;;5044118;28;20659;-82
2023/08/26 01:02:01;;;;;;;0.10;0.10;;;22.20;99.90;;;;;;5060855;28;20182;-82
2023/08/26 01:04:27;;;;;;;0.10;0.10;;;22.20;99.90;;;;;;5044606;28;20186;-82
2023/08/26 01:06:52;;;;;;;0.10;0.10;;;22.30;99.90;;;;;;5044856;28;20264;-82
2023/08/26 01:09:18;;;;;;;0.10;0.10;;;22.30;99.90;;;;;;5045481;28;20181;-81
2023/08/26 01:12:12;;;;;;;0.10;0.10;;;22.30;99.90;;;;;;5044410;28;21072;-82
2023/08/26 01:14:44;;;;;;;0.10;0.10;;;22.30;99.90;;;;;;5060978;28;20196;-82
2023/08/26 01:17:11;;;;;;;0.10;0.10;;;22.20;99.90;;;;;;5045790;28;20303;-81
2023/08/26 01:19:39;;;;;;;0.10;0.10;;;22.00;99.90;;;;;;5044512;28;20260;-82
2023/08/26 01:22:06;;;;;;;0.10;0.10;;;22.00;99.90;;;;;;5044806;28;20677;-82
2023/08/26 01:24:33;;;;;;;0.10;0.10;;;21.90;99.90;;;;;;5046471;28;20235;-81
2023/08/26 01:26:59;;;;;;;0.10;0.10;;;21.90;99.90;;;;;;5047258;28;20189;-82
2023/08/26 01:29:25;;;;;;;0.10;0.10;;;21.80;99.90;;;;;;5044229;28;20640;-82
2023/08/26 01:32:09;;;;;;;0.10;0.10;;;21.70;99.90;;;;;;5044811;28;20564;-81
2023/08/26 01:34:37;;;;;;;0.10;0.10;;;21.70;99.90;;;;;;5045150;28;20193;-81
2023/08/26 01:37:03;;;;;;;0.10;0.10;;;21.70;99.90;;;;;;5045569;28;20197;-82
2023/08/26 01:39:29;;;;;;;0.10;0.10;;;21.70;99.90;;;;;;5043963;28;20177;-82
2023/08/26 01:41:56;;;;;;;0.10;0.10;;;21.70;99.90;;;;;;5044126;28;20682;-80
2023/08/26 01:44:21;;;;;;;0.10;0.10;;;21.70;99.90;;;;;;5046690;28;20220;-81
2023/08/26 01:46:47;;;;;;;0.10;0.10;;;21.80;99.90;;;;;;5045070;28;20217;-82
2023/08/26 01:49:13;;;;;;;0.10;0.10;;;21.80;99.90;;;;;;5045068;28;20205;-81
2023/08/26 01:51:39;;;;;;;0.10;0.10;;;21.80;99.90;;;;;;5066471;28;20192;-82
2023/08/26 01:54:06;;;;;;;0.10;0.10;;;21.70;99.90;;;;;;5050326;28;20293;-81
2023/08/26 01:56:32;;;;;;;0.10;0.10;;;21.60;99.90;;;;;;5049161;28;20174;-81
2023/08/26 01:58:58;;;;;;;0.10;0.10;;;21.60;99.90;;;;;;5049286;28;20706;-82
2023/08/26 02:01:23;;;;;;;0.10;0.10;;;21.50;99.90;;;;;;5057422;28;20266;-82
2023/08/26 02:03:49;;;;;;;0.10;0.10;;;21.50;99.90;;;;;;5049014;28;20212;-82
2023/08/26 02:06:14;;;;;;;0.10;0.10;;;21.40;99.90;;;;;;5048700;28;20193;-82
2023/08/26 02:08:40;;;;;;;0.10;0.10;;;21.30;99.90;;;;;;5048384;28;20216;-82
2023/08/26 02:11:06;;;;;;;0.10;0.10;;;21.30;99.90;;;;;;5049118;28;20190;-82
2023/08/26 02:13:31;;;;;;;0.10;0.10;;;21.30;99.90;;;;;;5048382;28;20591;-82
2023/08/26 02:15:58;;;;;;;0.10;0.10;;;21.10;99.90;;;;;;5049530;28;20240;-81
2023/08/26 02:18:23;;;;;;;0.10;0.10;;;21.10;99.90;;;;;;5048615;28;20254;-82
2023/08/26 02:20:49;;;;;;;0.10;0.10;;;21.00;99.90;;;;;;5047832;28;20761;-82
2023/08/26 02:23:15;;;;;;;0.10;0.10;;;20.90;99.90;;;;;;5047967;28;20205;-82
2023/08/26 02:25:41;;;;;;;0.10;0.10;;;20.90;99.90;;;;;;5046907;28;20177;-82
2023/08/26 02:28:07;;;;;;;0.10;0.10;;;20.80;99.90;;;;;;5049064;28;20186;-82
2023/08/26 02:30:33;;;;;;;0.10;0.10;;;20.80;99.90;;;;;;5047354;28;20189;-81
2023/08/26 02:32:59;;;;;;;0.10;0.10;;;20.70;99.90;;;;;;5047823;28;20221;-82
2023/08/26 02:35:25;;;;;;;0.10;0.10;;;20.70;99.90;;;;;;5049890;28;20665;-81
2023/08/26 02:37:50;;;;;;;0.10;0.10;;;20.60;99.90;;;;;;5047623;28;20272;-82
2023/08/26 02:40:16;;;;;;;0.10;0.10;;;20.60;99.90;;;;;;5047701;28;20324;-82
2023/08/26 02:42:41;;;;;;;0.10;0.10;;;20.60;99.90;;;;;;5049433;28;20206;-81
2023/08/26 02:45:07;;;;;;;0.10;0.10;;;20.70;99.90;;;;;;5047657;28;20186;-82
2023/08/26 02:47:33;;;;;;;0.10;0.10;;;20.70;99.90;;;;;;5047980;28;20189;-82
2023/08/26 02:49:58;;;;;;;0.17;0.17;;;20.80;99.90;;;;;;5057543;28;20185;-82
2023/08/26 02:52:24;;;;;;;0.10;0.10;;;20.80;99.90;;;;;;5048703;28;20252;-82
2023/08/26 02:54:49;;;;;;;0.10;0.10;;;20.80;99.90;;;;;;5047416;28;20177;-82
2023/08/26 02:57:16;;;;;;;0.10;0.10;;;20.70;99.90;;;;;;5063137;28;20190;-82
2023/08/26 02:59:42;;;;;;;0.10;0.10;;;20.80;99.90;;;;;;5048204;28;20170;-82
2023/08/26 03:02:08;;;;;;;0.10;0.10;;;20.80;99.90;;;;;;5044975;28;20211;-81
2023/08/26 03:04:34;;;;;;;0.10;0.10;;;20.80;99.90;;;;;;5046150;28;20670;-82
2023/08/26 03:06:59;;;;;;;0.10;0.10;;;20.80;99.90;;;;;;5047240;28;20689;-82
2023/08/26 03:09:28;;;;;;;0.10;0.10;;;20.70;99.90;;;;;;5046931;28;20189;-82
2023/08/26 03:11:54;;;;;;;0.10;0.10;;;20.70;99.90;;;;;;5045839;28;20930;-81
2023/08/26 03:14:19;;;;;;;0.10;0.10;;;20.60;99.90;;;;;;5046731;28;20204;-81
2023/08/26 03:16:45;;;;;;;0.10;0.10;;;20.60;99.90;;;;;;5047463;28;20189;-81
2023/08/26 03:19:10;;;;;;;0.10;0.10;;;20.50;99.90;;;;;;5043739;28;20193;-82
2023/08/26 03:21:36;;;;;;;0.10;0.10;;;20.50;99.90;;;;;;5039939;28;20213;-82
2023/08/26 03:24:01;;;;;;;0.10;0.10;;;20.40;99.90;;;;;;5043517;28;20247;-83
2023/08/26 03:26:27;;;;;;;0.10;0.10;;;20.40;99.90;;;;;;5043190;28;20177;-82
2023/08/26 03:28:52;;;;;;;0.10;0.10;;;20.30;99.90;;;;;;5059144;28;20556;-82
2023/08/26 03:31:18;;;;;;;0.10;0.10;;;20.30;99.90;;;;;;5044095;28;20638;-82
2023/08/26 03:33:43;;;;;;;0.10;0.10;;;20.30;99.90;;;;;;5044112;28;20217;-82
2023/08/26 03:36:09;;;;;;;0.10;0.10;;;20.30;99.90;;;;;;5045493;28;20254;-82
2023/08/26 03:38:35;;;;;;;0.10;0.10;;;20.30;99.90;;;;;;5045180;28;20205;-83
2023/08/26 03:41:07;;;;;;;0.10;0.10;;;20.20;99.90;;;;;;5044813;28;20177;-82
2023/08/26 03:43:33;;;;;;;0.10;0.10;;;20.20;99.90;;;;;;5043351;28;20205;-83
2023/08/26 03:45:59;;;;;;;0.10;0.10;;;20.20;99.90;;;;;;5044599;28;20272;-83
2023/08/26 03:48:25;;;;;;;0.10;0.10;;;20.20;99.90;;;;;;5043116;28;20319;-83
2023/08/26 03:50:56;;;;;;;0.10;0.10;;;20.20;99.90;;;;;;5043556;28;20208;-83
2023/08/26 03:53:22;;;;;;;0.10;0.10;;;20.20;99.90;;;;;;5044317;28;20216;-83
2023/08/26 03:55:47;;;;;;;0.10;0.10;;;20.10;99.90;;;;;;5042852;28;20849;-82
2023/08/26 03:58:13;;;;;;;0.10;0.10;;;20.00;99.90;;;;;;5042868;28;20257;-83
2023/08/26 04:00:39;;;;;;;0.10;0.10;;;20.00;99.90;;;;;;5042285;28;20663;-81
2023/08/26 04:03:06;;;;;;;0.10;0.10;;;19.90;99.90;;;;;;5041938;28;20219;-81
2023/08/26 04:05:32;;;;;;;0.10;0.10;;;19.90;99.90;;;;;;5042968;28;20267;-82
2023/08/26 04:07:58;;;;;;;0.10;0.10;;;19.90;99.90;;;;;;5042005;28;20289;-82
2023/08/26 04:10:24;;;;;;;0.10;0.10;;;19.90;99.90;;;;;;5042677;28;20244;-82
2023/08/26 04:12:49;;;;;;;0.10;0.10;;;19.80;99.90;;;;;;5043361;28;20213;-82
2023/08/26 04:15:15;;;;;;;0.10;0.10;;;19.80;99.90;;;;;;5039227;28;20185;-81
2023/08/26 04:17:41;;;;;;;0.10;0.10;;;19.70;99.90;;;;;;5043466;28;20602;-82
2023/08/26 04:20:08;;;;;;;0.10;0.10;;;19.70;99.90;;;;;;5038860;28;20655;-82
2023/08/26 04:22:33;;;;;;;0.10;0.10;;;19.50;99.90;;;;;;5044494;28;20912;-82
2023/08/26 04:24:59;;;;;;;0.10;0.10;;;19.40;99.90;;;;;;5041810;28;20280;-82
2023/08/26 04:27:25;;;;;;;0.10;0.10;;;19.40;99.90;;;;;;5042689;28;20274;-82
2023/08/26 04:29:51;;;;;;;0.10;0.10;;;19.30;99.90;;;;;;5042172;28;20271;-82
2023/08/26 04:32:17;;;;;;;0.10;0.10;;;19.30;99.90;;;;;;5040856;28;20219;-81
2023/08/26 04:34:44;;;;;;;0.00;0.00;;;19.20;99.90;;;;;;5041203;28;20269;-81
2023/08/26 04:37:10;;;;;;;0.10;0.10;;;19.30;99.90;;;;;;5058081;28;20563;-81
2023/08/26 04:39:37;;;;;;;0.10;0.10;;;19.30;99.90;;;;;;5040732;28;20182;-82
2023/08/26 04:42:03;;;;;;;0.10;0.10;;;19.30;99.90;;;;;;5041480;28;20336;-82
2023/08/26 04:44:28;;;;;;;0.10;0.10;;;19.20;99.90;;;;;;5042841;28;20191;-81
2023/08/26 04:46:54;;;;;;;0.10;0.10;;;19.20;99.90;;;;;;5040485;28;20663;-81
2023/08/26 04:49:19;;;;;;;0.10;0.10;;;19.20;99.90;;;;;;5057152;28;20192;-82
2023/08/26 04:51:54;;;;;;;0.10;0.10;;;19.10;99.90;;;;;;5041517;28;20279;-81
2023/08/26 04:54:21;;;;;;;0.10;0.10;;;19.10;99.90;;;;;;5040919;28;20511;-82
2023/08/26 04:56:47;;;;;;;0.10;0.10;;;19.10;99.90;;;;;;5040804;28;20190;-82
2023/08/26 04:59:12;;;;;;;0.10;0.10;;;19.10;99.90;;;;;;5041512;28;20178;-82
2023/08/26 05:01:38;;;;;;;0.10;0.10;;;19.00;99.90;;;;;;5039862;28;21226;-82
2023/08/26 05:04:04;;;;;;;0.10;0.10;;;19.00;99.90;;;;;;5043555;28;20274;-82
2023/08/26 05:06:29;;;;;;;0.10;0.10;;;18.90;99.90;;;;;;5040123;28;20244;-81
2023/08/26 05:08:55;;;;;;;0.10;0.10;;;18.80;99.90;;;;;;5038766;28;20210;-82
2023/08/26 05:11:20;;;;;;;0.10;0.10;;;18.70;99.90;;;;;;5041650;28;20561;-82
2023/08/26 05:13:46;;;;;;;0.10;0.10;;;18.70;99.90;;;;;;5042562;28;20209;-82
2023/08/26 05:16:11;;;;;;;0.10;0.10;;;18.60;99.90;;;;;;5041226;28;20308;-82
2023/08/26 05:18:37;;;;;;;0.10;0.10;;;18.50;99.90;;;;;;5041973;28;20563;-82
2023/08/26 05:21:03;;;;;;;0.10;0.10;;;18.60;99.90;;;;;;5040014;28;20193;-81
2023/08/26 05:23:28;;;;;;;0.00;0.00;;;18.70;99.90;;;;;;5038697;28;20298;-82
2023/08/26 05:25:54;;;;;;;0.10;0.10;;;18.70;99.90;;;;;;5049625;28;20194;-81
2023/08/26 05:28:20;;;;;;;0.10;0.10;;;18.80;99.90;;;;;;5051611;28;20181;-81
2023/08/26 05:30:45;;;;;;;0.10;0.10;;;18.80;99.90;;;;;;5052441;28;20177;-81
2023/08/26 05:33:11;;;;;;;0.10;0.10;;;18.90;99.90;;;;;;5053830;28;20687;-81
2023/08/26 05:35:36;;;;;;;0.10;0.10;;;18.80;99.90;;;;;;5051645;28;20178;-80
2023/08/26 05:38:02;;;;;;;0.10;0.10;;;18.80;99.90;;;;;;5051944;28;20182;-81
2023/08/26 05:40:28;;;;;;;0.10;0.10;;;18.80;99.90;;;;;;5052230;28;20187;-82
2023/08/26 05:42:58;;;;;;;0.10;0.10;;;18.80;99.90;;;;;;5047098;28;20210;-82
2023/08/26 05:45:24;;;;;;;0.10;0.10;;;18.80;99.90;;;;;;5048356;28;20201;-82
2023/08/26 05:47:51;;;;;;;0.10;0.10;;;18.80;99.90;;;;;;5046749;28;20242;-82
2023/08/26 05:50:16;;;;;;;0.10;0.10;;;18.90;99.90;;;;;;5047759;28;20197;-82
2023/08/26 05:52:42;;;;;;;0.10;0.10;;;19.00;99.90;;;;;;5048225;28;20240;-82
2023/08/26 05:55:08;;;;;;;0.10;0.10;;;19.10;99.90;;;;;;5050334;28;20592;-83
2023/08/26 05:57:34;;;;;;;0.10;0.10;;;19.20;99.90;;;;;;5064616;28;20650;-82
2023/08/26 06:00:00;;;;;;;0.10;0.10;;;19.20;99.90;;;;;;5048885;28;20222;-82
2023/08/26 06:02:25;;;;;;;0.10;0.10;;;19.30;99.90;;;;;;5049296;28;20213;-82
2023/08/26 06:04:51;;;;;;;0.10;0.10;;;19.30;99.90;;;;;;5047697;28;20189;-82
2023/08/26 06:07:18;;;;;;;0.10;0.10;;;19.20;99.90;;;;;;5046535;28;21246;-82
2023/08/26 06:09:43;;;;;;;0.10;0.10;;;19.30;99.90;;;;;;5047101;28;20187;-82
2023/08/26 06:12:09;;;;;;;0.10;0.10;;;19.30;99.90;;;;;;5047669;28;20209;-81
2023/08/26 06:14:34;;;;;;;0.10;0.10;;;19.40;99.90;;;;;;5044915;28;20177;-82
2023/08/26 06:17:00;;;;;;;0.10;0.10;;;19.50;99.90;;;;;;5044273;28;20653;-82
2023/08/26 06:19:25;;;;;;;0.10;0.10;;;19.60;99.90;;;;;;5060746;28;20609;-82
2023/08/26 06:21:51;;;;;;;0.10;0.10;;;19.60;99.90;;;;;;5042748;28;20312;-81
2023/08/26 06:24:16;;;;;;;0.10;0.10;;;19.70;99.90;;;;;;5041983;28;20339;-83
2023/08/26 06:26:43;;;;;;;0.10;0.10;;;19.80;99.90;;;;;;5044593;28;20185;-82
2023/08/26 06:29:11;;;;;;;0.10;0.10;;;20.00;99.90;;;;;;5042113;28;20181;-82
2023/08/26 06:31:37;;;;;;;0.10;0.10;;;20.00;99.90;;;;;;5044928;28;20658;-82
2023/08/26 06:34:03;;;;;;;0.10;0.10;;;20.10;99.90;;;;;;5046131;28;20218;-82
2023/08/26 06:36:28;;;;;;;0.10;0.10;;;20.20;99.90;;;;;;5060762;28;20178;-82
2023/08/26 06:38:54;;;;;;;0.10;0.10;;;20.30;99.90;;;;;;5047536;28;20190;-82
2023/08/26 06:41:19;;;;;;;0.10;0.10;;;20.40;99.90;;;;;;5043309;28;20209;-83
2023/08/26 06:43:45;;;;;;;0.10;0.10;;;20.50;99.90;;;;;;5048057;28;21208;-83
2023/08/26 06:46:10;;;;;;;0.10;0.10;;;20.40;99.90;;;;;;5047539;28;20280;-82
2023/08/26 06:48:36;;;;;;;0.10;0.10;;;20.50;99.90;;;;;;5047255;28;20182;-82
2023/08/26 06:51:01;;;;;;;0.10;0.10;;;20.40;99.90;;;;;;5046434;28;20268;-82
2023/08/26 06:53:27;;;;;;;0.10;0.10;;;20.50;99.90;;;;;;5048355;28;20220;-82
2023/08/26 06:55:53;;;;;;;0.10;0.10;;;20.50;99.90;;;;;;5048139;28;20178;-82
2023/08/26 06:58:19;;;;;;;0.10;0.10;;;20.70;99.90;;;;;;5046911;28;20178;-83
2023/08/26 07:00:45;;;;;;;0.10;0.10;;;20.80;99.90;;;;;;5046665;28;20182;-82
2023/08/26 07:03:11;;;;;;;0.10;0.10;;;20.70;99.90;;;;;;5046901;28;20706;-82
2023/08/26 07:05:44;;;;;;;0.10;0.10;;;20.60;99.90;;;;;;5046576;28;20184;-83
2023/08/26 07:08:10;;;;;;;0.10;0.10;;;20.60;99.90;;;;;;5047751;28;20220;-82
2023/08/26 07:10:36;;;;;;;0.10;0.10;;;20.60;99.90;;;;;;5048616;28;20188;-83
2023/08/26 07:13:01;;;;;;;0.10;0.10;;;20.40;99.90;;;;;;5047584;28;20213;-82
2023/08/26 07:15:27;;;;;;;0.10;0.10;;;20.50;99.90;;;;;;5047260;28;20186;-82
2023/08/26 07:17:53;;;;;;;0.10;0.10;;;20.40;99.90;;;;;;5046325;28;20195;-83
2023/08/26 07:20:19;;;;;;;0.10;0.10;;;20.40;99.90;;;;;;5041619;28;20186;-83
2023/08/26 07:22:44;;;;;;;0.10;0.10;;;20.20;99.90;;;;;;5045250;28;20209;-83
2023/08/26 07:25:11;;;;;;;0.10;0.10;;;20.10;99.90;;;;;;5046371;28;20198;-82
2023/08/26 07:27:36;;;;;;;0.10;0.10;;;20.20;99.90;;;;;;5047486;28;20177;-82
2023/08/26 07:30:02;;;;;;;0.10;0.10;;;20.30;99.90;;;;;;5045941;28;20189;-83
2023/08/26 07:32:28;;;;;;;0.10;0.10;;;20.50;99.90;;;;;;5043413;28;20213;-83
2023/08/26 07:34:53;;;;;;;0.10;0.10;;;20.60;99.90;;;;;;5044183;28;20188;-83
2023/08/26 07:37:19;;;;;;;0.10;0.10;;;20.70;99.90;;;;;;5043592;28;20189;-82
2023/08/26 07:39:44;;;;;;;0.10;0.10;;;20.80;99.90;;;;;;5044196;28;20596;-82
2023/08/26 07:42:10;;;;;;;0.10;0.10;;;20.90;99.90;;;;;;5042264;28;20270;-83
2023/08/26 07:44:35;;;;;;;0.10;0.10;;;21.20;99.90;;;;;;5044558;28;20200;-81
2023/08/26 07:47:01;;;;;;;0.10;0.10;;;21.20;99.90;;;;;;5042552;28;20215;-81
2023/08/26 07:49:26;;;;;;;0.10;0.10;;;21.20;99.90;;;;;;5043886;28;20244;-80
2023/08/26 07:51:52;;;;;;;0.10;0.10;;;21.20;99.90;;;;;;5043290;28;20186;-80
2023/08/26 07:54:17;;;;;;;0.10;0.10;;;21.30;99.90;;;;;;5042760;28;20209;-80
2023/08/26 07:56:43;;;;;;;0.03;0.03;;;21.40;99.90;;;;;;5042009;28;20217;-80
2023/08/26 07:59:08;;;;;;;0.10;0.10;;;21.50;99.90;;;;;;5048106;28;20193;-81
2023/08/26 08:01:34;;;;;;;0.10;0.10;;;21.50;99.90;;;;;;5044091;28;20185;-80
2023/08/26 08:03:59;;;;;;;0.10;0.10;;;21.50;99.90;;;;;;5046422;28;20304;-80
2023/08/26 08:06:25;;;;;;;0.10;0.10;;;21.50;99.90;;;;;;5045460;28;20267;-80
2023/08/26 08:08:51;;;;;;;0.10;0.10;;;21.50;99.90;;;;;;5060678;28;20197;-81
2023/08/26 08:11:17;;;;;;;0.10;0.10;;;21.70;99.90;;;;;;5044173;28;20189;-80
2023/08/26 08:13:42;;;;;;;0.10;0.10;;;21.90;99.90;;;;;;5043528;28;20312;-81
2023/08/26 08:16:08;;;;;;;0.10;0.10;;;21.70;99.90;;;;;;5046070;28;20220;-80
2023/08/26 08:18:33;;;;;;;0.10;0.10;;;21.80;99.90;;;;;;5046881;28;20181;-81
2023/08/26 08:20:59;;;;;;;0.10;0.10;;;21.90;99.90;;;;;;5046199;28;20199;-81
2023/08/26 08:23:25;;;;;;;0.10;0.10;;;22.20;99.90;;;;;;5046638;28;20213;-81
2023/08/26 08:25:50;;;;;;;0.10;0.10;;;22.30;99.90;;;;;;5045238;28;20276;-81
2023/08/26 08:28:16;;;;;;;0.10;0.10;;;22.00;99.90;;;;;;5041391;28;20669;-82
2023/08/26 08:30:41;;;;;;;0.10;0.10;;;22.20;99.90;;;;;;5039578;28;20193;-82
2023/08/26 08:33:07;;;;;;;0.10;0.10;;;22.40;99.90;;;;;;5040725;28;20308;-81
2023/08/26 08:35:32;;;;;;;0.10;0.10;;;22.60;99.90;;;;;;5043702;28;20873;-82
2023/08/26 08:37:58;;;;;;;0.10;0.10;;;22.70;99.90;;;;;;5041513;28;20177;-82
2023/08/26 08:40:23;;;;;;;0.10;0.10;;;22.80;99.90;;;;;;5042752;28;20182;-81
2023/08/26 08:42:50;;;;;;;0.10;0.10;;;22.70;99.90;;;;;;5042247;28;20301;-81
2023/08/26 08:45:16;;;;;;;0.10;0.10;;;22.70;99.90;;;;;;5042825;28;20228;-82
2023/08/26 08:47:42;;;;;;;0.10;0.10;;;22.90;99.90;;;;;;5043775;28;20189;-82
2023/08/26 08:50:08;;;;;;;0.10;0.10;;;23.10;99.90;;;;;;5042270;28;20182;-82
2023/08/26 08:52:34;;;;;;;0.10;0.10;;;23.20;99.90;;;;;;5058470;28;20217;-82
2023/08/26 08:54:59;;;;;;;0.10;0.10;;;23.30;99.90;;;;;;5044296;28;20198;-82
2023/08/26 08:57:34;;;;;;;0.10;0.10;;;23.40;99.90;;;;;;5042237;28;20185;-82
2023/08/26 09:00:02;;;;;;;0.10;0.10;;;23.50;99.90;;;;;;5041926;28;20199;-82
2023/08/26 09:02:29;;;;;;;0.10;0.10;;;23.50;99.90;;;;;;5050778;28;20209;-81
2023/08/26 09:04:55;;;;;;;0.10;0.10;;;23.50;99.90;;;;;;5042394;28;20190;-82
2023/08/26 09:07:21;;;;;;;0.10;0.10;;;23.60;99.90;;;;;;5043525;28;20263;-82
2023/08/26 09:09:47;;;;;;;0.10;0.10;;;23.60;99.90;;;;;;5035495;28;20213;-82
2023/08/26 09:12:12;;;;;;;0.10;0.10;;;23.60;99.90;;;;;;5044021;28;20240;-82
2023/08/26 09:14:38;;;;;;;0.10;0.10;;;23.50;99.90;;;;;;5045337;28;20267;-82
2023/08/26 09:17:17;;;;;;;0.10;0.10;;;23.50;99.90;;;;;;5056766;28;20698;-82
2023/08/26 09:19:53;;;;;;;0.10;0.10;;;23.30;99.90;;;;;;5040612;28;20185;-82
2023/08/26 09:22:23;;;;;;;0.10;0.10;;;23.50;99.90;;;;;;5043210;28;20287;-82
2023/08/26 09:24:48;;;;;;;0.10;0.10;;;23.70;99.90;;;;;;5043415;28;20217;-82
2023/08/26 09:27:16;;;;;;;0.10;0.10;;;23.70;99.90;;;;;;5042580;28;20278;-82
2023/08/26 09:29:41;;;;;;;0.10;0.10;;;24.00;99.90;;;;;;5043073;28;20181;-82
2023/08/26 09:32:07;;;;;;;0.10;0.10;;;24.00;99.90;;;;;;5042228;28;20589;-82
2023/08/26 09:34:33;;;;;;;0.10;0.10;;;23.70;99.90;;;;;;5039397;28;22001;-82
2023/08/26 09:36:59;;;;;;;0.10;0.10;;;23.60;99.90;;;;;;5042397;28;20235;-82
2023/08/26 09:39:25;;;;;;;0.10;0.10;;;23.60;99.90;;;;;;5043345;28;20196;-82
2023/08/26 09:41:53;;;;;;;0.10;0.10;;;23.50;99.90;;;;;;5059406;28;20180;-82
2023/08/26 09:44:21;;;;;;;0.10;0.10;;;23.60;99.90;;;;;;5044259;28;20302;-82
2023/08/26 09:46:47;;;;;;;0.10;0.10;;;23.60;99.90;;;;;;5043303;28;20228;-82
2023/08/26 09:49:17;;;;;;;0.10;0.10;;;23.40;99.90;;;;;;5052446;28;21010;-82
2023/08/26 09:51:48;;;;;;;0.10;0.10;;;23.30;99.90;;;;;;5041587;28;20182;-82
2023/08/26 09:54:19;;;;;;;0.10;0.10;;;23.50;99.90;;;;;;5043865;28;20260;-82
2023/08/26 09:56:45;;;;;;;0.10;0.10;;;23.80;99.90;;;;;;5042416;28;20663;-82
2023/08/26 09:59:11;;;;;;;0.10;0.10;;;23.90;99.90;;;;;;5042016;28;20698;-82
2023/08/26 10:01:38;;;;;;;0.10;0.10;;;24.40;99.90;;;;;;5042180;28;20182;-82
2023/08/26 10:04:09;;;;;;;0.10;0.10;;;24.90;99.90;;;;;;5043027;28;20221;-82
2023/08/26 10:06:57;;;;;;;0.10;0.10;;;25.10;99.90;;;;;;5043846;28;20280;-82
2023/08/26 10:09:52;;;;;;;0.10;0.10;;;25.40;99.90;;;;;;5033249;28;20319;-81
2023/08/26 10:12:22;;;;;;;0.10;0.10;;;25.70;99.90;;;;;;5046185;28;20376;-82
2023/08/26 10:14:50;;;;;;;0.10;0.10;;;25.70;99.90;;;;;;5055892;28;20178;-83
2023/08/26 10:17:20;;;;;;;0.10;0.10;;;25.60;99.90;;;;;;5047679;28;20189;-82
2023/08/26 10:19:47;;;;;;;0.10;0.10;;;25.50;99.90;;;;;;5048074;28;20651;-82
2023/08/26 10:22:13;;;;;;;0.10;0.10;;;25.60;99.90;;;;;;5061861;28;20213;-82
2023/08/26 10:24:39;;;;;;;0.10;0.10;;;25.30;99.90;;;;;;5049998;28;20190;-82
2023/08/26 10:27:06;;;;;;;0.10;0.10;;;25.30;99.90;;;;;;5041737;28;20368;-82
2023/08/26 10:29:35;;;;;;;0.10;0.10;;;25.00;99.90;;;;;;5044485;28;20239;-82
2023/08/26 10:32:16;;;;;;;0.10;0.10;;;25.10;99.90;;;;;;5047438;28;20596;-82
2023/08/26 10:34:53;;;;;;;0.10;0.10;;;25.30;99.90;;;;;;5049232;28;20596;-82
2023/08/26 10:37:19;;;;;;;0.10;0.10;;;25.20;99.90;;;;;;5061470;28;20635;-82
2023/08/26 10:39:45;;;;;;;0.10;0.10;;;25.20;99.90;;;;;;5046171;28;20196;-83
2023/08/26 10:42:16;;;;;;;0.10;0.10;;;25.50;99.90;;;;;;5048352;28;20185;-82
2023/08/26 10:44:45;;;;;;;0.10;0.10;;;25.70;99.90;;;;;;5056360;28;20924;-82
2023/08/26 10:47:13;;;;;;;0.10;0.10;;;25.90;99.90;;;;;;5041069;28;20217;-82
2023/08/26 10:49:39;;;;;;;0.10;0.10;;;26.00;99.90;;;;;;5048817;28;20192;-82
2023/08/26 10:52:18;;;;;;;0.10;0.10;;;26.20;99.90;;;;;;5048925;28;20297;-82
2023/08/26 10:54:47;;;;;;;0.10;0.10;;;26.40;99.90;;;;;;5046282;28;20231;-82
2023/08/26 10:57:12;;;;;;;0.10;0.10;;;26.40;99.90;;;;;;5048369;28;20233;-82
2023/08/26 10:59:40;;;;;;;0.10;0.10;;;26.60;99.90;;;;;;5046437;28;20181;-82
2023/08/26 11:02:13;;;;;;;0.10;0.10;;;26.80;99.90;;;;;;5045183;28;20178;-82
2023/08/26 11:04:43;;;;;;;0.10;0.10;;;26.70;99.90;;;;;;5046788;28;20178;-82
2023/08/26 11:07:20;;;;;;;0.10;0.10;;;26.60;99.90;;;;;;5064508;28;20201;-82
2023/08/26 11:09:46;;;;;;;0.10;0.10;;;26.60;99.90;;;;;;5047432;28;20177;-82
2023/08/26 11:12:28;;;;;;;0.10;0.10;;;26.80;99.90;;;;;;5041991;28;20273;-83
2023/08/26 11:15:06;;;;;;;0.10;0.10;;;26.90;99.90;;;;;;5044985;28;20231;-83
2023/08/26 11:17:32;;;;;;;0.10;0.10;;;26.70;99.90;;;;;;5047091;28;20264;-81
2023/08/26 11:19:58;;;;;;;0.10;0.10;;;26.50;99.90;;;;;;5047122;28;20182;-82
2023/08/26 11:22:26;;;;;;;0.10;0.10;;;26.50;99.90;;;;;;5045871;28;20709;-83
2023/08/26 11:24:51;;;;;;;0.10;0.10;;;26.50;99.90;;;;;;5048489;28;20178;-82
2023/08/26 11:27:18;;;;;;;0.10;0.10;;;26.30;99.90;;;;;;5044326;28;20223;-82
2023/08/26 11:29:43;;;;;;;0.10;0.10;;;26.50;99.90;;;;;;5047615;28;20189;-82
2023/08/26 11:32:09;;;;;;;0.10;0.10;;;26.40;99.90;;;;;;5044798;28;20185;-82
2023/08/26 11:34:34;;;;;;;0.10;0.10;;;26.40;99.90;;;;;;5049092;28;20208;-82
2023/08/26 11:37:00;;;;;;;0.10;0.10;;;26.40;99.90;;;;;;5047027;28;20203;-82
2023/08/26 11:39:30;;;;;;;0.10;0.10;;;26.30;99.90;;;;;;5047050;28;20231;-82
2023/08/26 11:41:56;;;;;;;0.10;0.10;;;26.20;99.90;;;;;;5043628;28;20235;-82
2023/08/26 11:44:22;;;;;;;0.10;0.10;;;26.30;99.90;;;;;;5052227;28;20209;-82
2023/08/26 11:46:48;;;;;;;0.10;0.10;;;26.40;99.90;;;;;;5048781;28;20254;-82
2023/08/26 11:49:15;;;;;;;0.10;0.10;;;26.10;99.90;;;;;;5047268;28;20644;-82
2023/08/26 11:51:40;;;;;;;0.10;0.10;;;26.20;99.90;;;;;;5044361;28;20536;-82
2023/08/26 11:54:08;;;;;;;0.10;0.10;;;26.00;99.90;;;;;;5045541;28;20224;-82
2023/08/26 11:56:34;;;;;;;0.10;0.10;;;26.10;99.90;;;;;;5050175;28;20178;-82
2023/08/26 11:58:59;;;;;;;0.10;0.10;;;26.30;99.90;;;;;;5048121;28;20185;-82
2023/08/26 12:01:25;;;;;;;0.10;0.10;;;26.50;99.90;;;;;;5050661;28;20201;-82
2023/08/26 12:03:51;;;;;;;0.10;0.10;;;26.50;99.90;;;;;;5047409;28;20266;-82
2023/08/26 12:06:18;;;;;;;0.10;0.10;;;26.70;99.90;;;;;;5048443;28;20658;-82
2023/08/26 12:08:51;;;;;;;0.10;0.10;;;26.60;99.90;;;;;;5047616;28;20197;-82
2023/08/26 12:11:17;;;;;;;0.10;0.10;;;26.60;99.90;;;;;;5048661;28;20185;-83
2023/08/26 12:13:42;;;;;;;0.10;0.10;;;26.60;99.90;;;;;;5048485;28;20575;-82
2023/08/26 12:16:09;;;;;;;0.10;0.10;;;26.00;99.90;;;;;;5046284;28;20197;-82
2023/08/26 12:18:35;;;;;;;0.10;0.10;;;25.70;99.90;;;;;;5047826;28;20216;-82
2023/08/26 12:21:00;;;;;;;0.10;0.10;;;25.60;99.90;;;;;;5047096;28;20209;-82
2023/08/26 12:23:26;;;;;;;0.10;0.10;;;25.30;99.90;;;;;;5047757;28;20576;-82
2023/08/26 12:25:52;;;;;;;0.10;0.10;;;25.10;99.90;;;;;;5064077;28;20209;-81
2023/08/26 12:28:22;;;;;;;0.10;0.10;;;25.20;99.90;;;;;;5047254;28;20181;-82
2023/08/26 12:30:48;;;;;;;0.10;0.10;;;25.10;99.90;;;;;;5049145;28;20294;-82
2023/08/26 12:33:14;;;;;;;0.10;0.10;;;25.10;99.90;;;;;;5046302;28;20221;-82
2023/08/26 12:35:40;;;;;;;0.10;0.10;;;24.90;99.90;;;;;;5044541;28;20265;-83
2023/08/26 12:38:06;;;;;;;0.10;0.10;;;24.70;99.90;;;;;;5043254;28;20272;-82
2023/08/26 12:40:33;;;;;;;0.10;0.10;;;24.80;99.90;;;;;;5042739;28;20181;-82
2023/08/26 12:42:59;;;;;;;0.10;0.10;;;25.10;99.90;;;;;;5042579;28;20201;-82
2023/08/26 12:45:25;;;;;;;0.10;0.10;;;25.40;99.90;;;;;;5045233;28;20189;-82